sensor_id;sensor_type;location;lat;lon;timestamp;P1;durP1;ratioP1;P2;durP2;ratioP2
5951;SDS011;3001;42.622;23.194;2023-06-14T00:00:33;15.50;;;10.73;;
5951;SDS011;3001;42.622;23.194;2023-06-14T00:03:00;22.07;;;11.27;;
5951;SDS011;3001;42.622;23.194;2023-06-14T00:05:28;15.37;;;9.67;;
5951;SDS011;3001;42.622;23.194;2023-06-14T00:07:58;15.70;;;10.10;;
5951;SDS011;3001;42.622;23.194;2023-06-14T00:10:27;10.60;;;9.70;;
5951;SDS011;3001;42.622;23.194;2023-06-14T00:12:56;13.77;;;11.17;;
5951;SDS011;3001;42.622;23.194;2023-06-14T00:15:24;21.63;;;10.73;;
5951;SDS011;3001;42.622;23.194;2023-06-14T00:17:51;13.83;;;10.43;;
5951;SDS011;3001;42.622;23.194;2023-06-14T00:20:18;13.13;;;9.57;;
5951;SDS011;3001;42.622;23.194;2023-06-14T00:22:45;12.77;;;10.50;;
5951;SDS011;3001;42.622;23.194;2023-06-14T00:25:11;17.97;;;11.57;;
5951;SDS011;3001;42.622;23.194;2023-06-14T00:27:39;14.93;;;10.60;;
5951;SDS011;3001;42.622;23.194;2023-06-14T00:30:06;14.80;;;10.67;;
5951;SDS011;3001;42.622;23.194;2023-06-14T00:32:34;11.00;;;9.80;;
5951;SDS011;3001;42.622;23.194;2023-06-14T00:35:01;14.43;;;10.53;;
5951;SDS011;3001;42.622;23.194;2023-06-14T00:37:27;12.40;;;10.20;;
5951;SDS011;3001;42.622;23.194;2023-06-14T00:39:54;12.30;;;9.50;;
5951;SDS011;3001;42.622;23.194;2023-06-14T00:42:24;10.67;;;9.43;;
5951;SDS011;3001;42.622;23.194;2023-06-14T00:44:52;12.90;;;9.83;;
5951;SDS011;3001;42.622;23.194;2023-06-14T00:47:19;12.57;;;10.27;;
5951;SDS011;3001;42.622;23.194;2023-06-14T00:49:47;14.70;;;8.87;;
5951;SDS011;3001;42.622;23.194;2023-06-14T00:52:14;15.90;;;9.60;;
5951;SDS011;3001;42.622;23.194;2023-06-14T00:54:42;17.40;;;9.40;;
5951;SDS011;3001;42.622;23.194;2023-06-14T00:57:09;18.13;;;10.50;;
5951;SDS011;3001;42.622;23.194;2023-06-14T00:59:38;17.33;;;10.53;;
5951;SDS011;3001;42.622;23.194;2023-06-14T01:02:10;19.33;;;11.47;;
5951;SDS011;3001;42.622;23.194;2023-06-14T01:04:38;16.43;;;10.53;;
5951;SDS011;3001;42.622;23.194;2023-06-14T01:07:07;15.90;;;11.70;;
5951;SDS011;3001;42.622;23.194;2023-06-14T01:09:43;17.73;;;11.40;;
5951;SDS011;3001;42.622;23.194;2023-06-14T01:12:20;17.13;;;10.77;;
5951;SDS011;3001;42.622;23.194;2023-06-14T01:14:50;15.63;;;10.20;;
5951;SDS011;3001;42.622;23.194;2023-06-14T01:17:21;14.30;;;10.23;;
5951;SDS011;3001;42.622;23.194;2023-06-14T01:19:50;17.57;;;10.63;;
5951;SDS011;3001;42.622;23.194;2023-06-14T01:22:23;9.83;;;8.83;;
5951;SDS011;3001;42.622;23.194;2023-06-14T01:24:52;10.60;;;9.33;;
5951;SDS011;3001;42.622;23.194;2023-06-14T01:27:20;14.17;;;9.47;;
5951;SDS011;3001;42.622;23.194;2023-06-14T01:29:49;11.07;;;8.70;;
5951;SDS011;3001;42.622;23.194;2023-06-14T01:32:17;9.30;;;8.33;;
5951;SDS011;3001;42.622;23.194;2023-06-14T01:34:44;8.73;;;7.90;;
5951;SDS011;3001;42.622;23.194;2023-06-14T01:37:11;8.20;;;7.60;;
5951;SDS011;3001;42.622;23.194;2023-06-14T01:39:39;7.93;;;7.27;;
5951;SDS011;3001;42.622;23.194;2023-06-14T01:42:08;7.30;;;6.80;;
5951;SDS011;3001;42.622;23.194;2023-06-14T01:44:36;7.40;;;6.67;;
5951;SDS011;3001;42.622;23.194;2023-06-14T01:47:04;7.10;;;6.60;;
5951;SDS011;3001;42.622;23.194;2023-06-14T01:49:33;7.20;;;5.63;;
5951;SDS011;3001;42.622;23.194;2023-06-14T01:51:59;8.60;;;6.63;;
5951;SDS011;3001;42.622;23.194;2023-06-14T01:54:26;7.70;;;6.60;;
5951;SDS011;3001;42.622;23.194;2023-06-14T01:56:54;7.40;;;6.50;;
5951;SDS011;3001;42.622;23.194;2023-06-14T01:59:22;7.03;;;6.23;;
5951;SDS011;3001;42.622;23.194;2023-06-14T02:01:49;6.87;;;6.27;;
5951;SDS011;3001;42.622;23.194;2023-06-14T02:04:16;7.83;;;7.00;;
5951;SDS011;3001;42.622;23.194;2023-06-14T02:06:43;6.77;;;6.27;;
5951;SDS011;3001;42.622;23.194;2023-06-14T02:09:09;7.10;;;6.17;;
5951;SDS011;3001;42.622;23.194;2023-06-14T02:11:36;6.60;;;6.20;;
5951;SDS011;3001;42.622;23.194;2023-06-14T02:14:03;7.20;;;6.60;;
5951;SDS011;3001;42.622;23.194;2023-06-14T02:16:31;6.90;;;6.33;;
5951;SDS011;3001;42.622;23.194;2023-06-14T02:19:00;7.27;;;5.83;;
5951;SDS011;3001;42.622;23.194;2023-06-14T02:21:27;6.40;;;5.90;;
5951;SDS011;3001;42.622;23.194;2023-06-14T02:23:54;9.20;;;6.00;;
5951;SDS011;3001;42.622;23.194;2023-06-14T02:26:21;6.30;;;5.80;;
5951;SDS011;3001;42.622;23.194;2023-06-14T02:28:48;7.83;;;5.90;;
5951;SDS011;3001;42.622;23.194;2023-06-14T02:31:15;6.33;;;5.93;;
5951;SDS011;3001;42.622;23.194;2023-06-14T02:33:43;6.33;;;5.93;;
5951;SDS011;3001;42.622;23.194;2023-06-14T02:36:10;6.03;;;5.50;;
5951;SDS011;3001;42.622;23.194;2023-06-14T02:38:37;8.27;;;5.40;;
5951;SDS011;3001;42.622;23.194;2023-06-14T02:41:03;8.63;;;5.53;;
5951;SDS011;3001;42.622;23.194;2023-06-14T02:43:31;6.87;;;4.93;;
5951;SDS011;3001;42.622;23.194;2023-06-14T02:45:57;5.40;;;5.10;;
5951;SDS011;3001;42.622;23.194;2023-06-14T02:48:24;5.43;;;4.93;;
5951;SDS011;3001;42.622;23.194;2023-06-14T02:50:52;7.20;;;4.97;;
5951;SDS011;3001;42.622;23.194;2023-06-14T02:53:19;7.13;;;5.23;;
5951;SDS011;3001;42.622;23.194;2023-06-14T02:55:45;5.30;;;4.90;;
5951;SDS011;3001;42.622;23.194;2023-06-14T02:58:13;6.20;;;5.43;;
5951;SDS011;3001;42.622;23.194;2023-06-14T03:00:41;6.10;;;5.50;;
5951;SDS011;3001;42.622;23.194;2023-06-14T03:03:08;5.90;;;5.23;;
5951;SDS011;3001;42.622;23.194;2023-06-14T03:05:39;5.50;;;5.20;;
5951;SDS011;3001;42.622;23.194;2023-06-14T03:08:12;6.00;;;5.17;;
5951;SDS011;3001;42.622;23.194;2023-06-14T03:10:42;6.10;;;5.00;;
5951;SDS011;3001;42.622;23.194;2023-06-14T03:13:08;6.10;;;5.53;;
5951;SDS011;3001;42.622;23.194;2023-06-14T03:15:36;5.60;;;5.20;;
5951;SDS011;3001;42.622;23.194;2023-06-14T03:18:03;5.47;;;5.17;;
5951;SDS011;3001;42.622;23.194;2023-06-14T03:20:30;6.37;;;4.97;;
5951;SDS011;3001;42.622;23.194;2023-06-14T03:22:58;6.23;;;5.70;;
5951;SDS011;3001;42.622;23.194;2023-06-14T03:25:26;5.40;;;5.00;;
5951;SDS011;3001;42.622;23.194;2023-06-14T03:27:54;5.27;;;4.87;;
5951;SDS011;3001;42.622;23.194;2023-06-14T03:30:21;5.37;;;4.87;;
5951;SDS011;3001;42.622;23.194;2023-06-14T03:32:48;12.10;;;6.13;;
5951;SDS011;3001;42.622;23.194;2023-06-14T03:35:16;5.47;;;5.17;;
5951;SDS011;3001;42.622;23.194;2023-06-14T03:37:43;5.57;;;5.17;;
5951;SDS011;3001;42.622;23.194;2023-06-14T03:40:10;5.40;;;4.83;;
5951;SDS011;3001;42.622;23.194;2023-06-14T03:42:39;5.60;;;5.20;;
5951;SDS011;3001;42.622;23.194;2023-06-14T03:45:06;5.83;;;5.33;;
5951;SDS011;3001;42.622;23.194;2023-06-14T03:47:34;5.57;;;5.27;;
5951;SDS011;3001;42.622;23.194;2023-06-14T03:50:01;5.97;;;5.50;;
5951;SDS011;3001;42.622;23.194;2023-06-14T03:52:28;5.67;;;5.37;;
5951;SDS011;3001;42.622;23.194;2023-06-14T03:54:54;6.27;;;5.67;;
5951;SDS011;3001;42.622;23.194;2023-06-14T03:57:23;6.37;;;5.97;;
5951;SDS011;3001;42.622;23.194;2023-06-14T03:59:51;6.23;;;5.80;;
5951;SDS011;3001;42.622;23.194;2023-06-14T04:02:18;6.70;;;6.13;;
5951;SDS011;3001;42.622;23.194;2023-06-14T04:04:44;7.50;;;6.90;;
5951;SDS011;3001;42.622;23.194;2023-06-14T04:07:11;8.77;;;6.93;;
5951;SDS011;3001;42.622;23.194;2023-06-14T04:09:38;8.20;;;7.47;;
5951;SDS011;3001;42.622;23.194;2023-06-14T04:12:05;8.30;;;7.70;;
5951;SDS011;3001;42.622;23.194;2023-06-14T04:14:34;8.33;;;7.73;;
5951;SDS011;3001;42.622;23.194;2023-06-14T04:17:02;9.53;;;8.60;;
5951;SDS011;3001;42.622;23.194;2023-06-14T04:19:29;8.50;;;7.73;;
5951;SDS011;3001;42.622;23.194;2023-06-14T04:21:55;7.47;;;7.07;;
5951;SDS011;3001;42.622;23.194;2023-06-14T04:24:24;7.80;;;7.23;;
5951;SDS011;3001;42.622;23.194;2023-06-14T04:26:57;8.83;;;8.03;;
5951;SDS011;3001;42.622;23.194;2023-06-14T04:29:26;8.10;;;7.53;;
5951;SDS011;3001;42.622;23.194;2023-06-14T04:31:55;9.23;;;8.63;;
5951;SDS011;3001;42.622;23.194;2023-06-14T04:34:25;9.53;;;8.73;;
5951;SDS011;3001;42.622;23.194;2023-06-14T04:36:54;9.07;;;8.33;;
5951;SDS011;3001;42.622;23.194;2023-06-14T04:39:23;9.13;;;8.47;;
5951;SDS011;3001;42.622;23.194;2023-06-14T04:41:51;9.90;;;8.33;;
5951;SDS011;3001;42.622;23.194;2023-06-14T04:44:22;8.83;;;8.10;;
5951;SDS011;3001;42.622;23.194;2023-06-14T04:46:55;9.90;;;8.90;;
5951;SDS011;3001;42.622;23.194;2023-06-14T04:49:21;11.67;;;9.20;;
5951;SDS011;3001;42.622;23.194;2023-06-14T04:51:50;9.17;;;8.27;;
5951;SDS011;3001;42.622;23.194;2023-06-14T04:54:22;10.53;;;8.53;;
5951;SDS011;3001;42.622;23.194;2023-06-14T04:56:50;9.13;;;8.37;;
5951;SDS011;3001;42.622;23.194;2023-06-14T04:59:18;9.13;;;8.10;;
5951;SDS011;3001;42.622;23.194;2023-06-14T05:01:45;9.40;;;8.70;;
5951;SDS011;3001;42.622;23.194;2023-06-14T05:04:13;11.67;;;8.23;;
5951;SDS011;3001;42.622;23.194;2023-06-14T05:06:40;9.03;;;8.33;;
5951;SDS011;3001;42.622;23.194;2023-06-14T05:09:08;10.60;;;9.70;;
5951;SDS011;3001;42.622;23.194;2023-06-14T05:11:34;9.50;;;8.60;;
5951;SDS011;3001;42.622;23.194;2023-06-14T05:14:01;8.90;;;8.30;;
5951;SDS011;3001;42.622;23.194;2023-06-14T05:16:28;9.17;;;8.27;;
5951;SDS011;3001;42.622;23.194;2023-06-14T05:18:55;9.23;;;8.20;;
5951;SDS011;3001;42.622;23.194;2023-06-14T05:21:21;8.87;;;8.33;;
5951;SDS011;3001;42.622;23.194;2023-06-14T05:23:48;9.33;;;8.67;;
5951;SDS011;3001;42.622;23.194;2023-06-14T05:26:17;9.10;;;8.27;;
5951;SDS011;3001;42.622;23.194;2023-06-14T05:28:43;9.97;;;9.27;;
5951;SDS011;3001;42.622;23.194;2023-06-14T05:31:10;9.30;;;8.40;;
5951;SDS011;3001;42.622;23.194;2023-06-14T05:33:37;8.27;;;7.63;;
5951;SDS011;3001;42.622;23.194;2023-06-14T05:36:03;8.77;;;8.00;;
5951;SDS011;3001;42.622;23.194;2023-06-14T05:38:30;8.80;;;8.00;;
5951;SDS011;3001;42.622;23.194;2023-06-14T05:40:57;8.27;;;7.70;;
5951;SDS011;3001;42.622;23.194;2023-06-14T05:43:26;9.00;;;8.33;;
5951;SDS011;3001;42.622;23.194;2023-06-14T05:45:52;8.77;;;8.17;;
5951;SDS011;3001;42.622;23.194;2023-06-14T05:48:19;9.43;;;8.73;;
5951;SDS011;3001;42.622;23.194;2023-06-14T05:50:46;8.93;;;8.33;;
5951;SDS011;3001;42.622;23.194;2023-06-14T05:53:13;9.57;;;8.70;;
5951;SDS011;3001;42.622;23.194;2023-06-14T05:55:39;9.50;;;8.90;;
5951;SDS011;3001;42.622;23.194;2023-06-14T05:58:06;9.47;;;8.73;;
5951;SDS011;3001;42.622;23.194;2023-06-14T06:00:34;10.50;;;9.50;;
5951;SDS011;3001;42.622;23.194;2023-06-14T06:03:01;9.10;;;8.20;;
5951;SDS011;3001;42.622;23.194;2023-06-14T06:05:27;9.87;;;9.07;;
5951;SDS011;3001;42.622;23.194;2023-06-14T06:07:54;10.70;;;9.87;;
5951;SDS011;3001;42.622;23.194;2023-06-14T06:10:21;10.40;;;9.60;;
5951;SDS011;3001;42.622;23.194;2023-06-14T06:12:48;9.17;;;8.37;;
5951;SDS011;3001;42.622;23.194;2023-06-14T06:15:17;10.07;;;9.33;;
5951;SDS011;3001;42.622;23.194;2023-06-14T06:17:45;11.60;;;10.67;;
5951;SDS011;3001;42.622;23.194;2023-06-14T06:20:12;11.77;;;10.57;;
5951;SDS011;3001;42.622;23.194;2023-06-14T06:22:39;10.97;;;9.43;;
5951;SDS011;3001;42.622;23.194;2023-06-14T06:25:06;10.30;;;9.40;;
5951;SDS011;3001;42.622;23.194;2023-06-14T06:27:33;10.63;;;9.70;;
5951;SDS011;3001;42.622;23.194;2023-06-14T06:30:01;10.63;;;9.83;;
5951;SDS011;3001;42.622;23.194;2023-06-14T06:32:28;12.23;;;11.00;;
5951;SDS011;3001;42.622;23.194;2023-06-14T06:34:56;12.10;;;10.90;;
5951;SDS011;3001;42.622;23.194;2023-06-14T06:37:24;10.57;;;9.77;;
5951;SDS011;3001;42.622;23.194;2023-06-14T06:39:51;9.20;;;8.67;;
5951;SDS011;3001;42.622;23.194;2023-06-14T06:42:18;9.23;;;8.53;;
5951;SDS011;3001;42.622;23.194;2023-06-14T06:44:45;9.53;;;8.63;;
5951;SDS011;3001;42.622;23.194;2023-06-14T06:47:11;9.87;;;9.23;;
5951;SDS011;3001;42.622;23.194;2023-06-14T06:49:38;10.17;;;9.53;;
5951;SDS011;3001;42.622;23.194;2023-06-14T06:52:07;11.30;;;10.27;;
5951;SDS011;3001;42.622;23.194;2023-06-14T06:54:34;10.67;;;9.90;;
5951;SDS011;3001;42.622;23.194;2023-06-14T06:57:00;10.47;;;9.47;;
5951;SDS011;3001;42.622;23.194;2023-06-14T06:59:27;11.30;;;10.20;;
5951;SDS011;3001;42.622;23.194;2023-06-14T07:01:55;10.80;;;10.03;;
5951;SDS011;3001;42.622;23.194;2023-06-14T07:04:22;12.27;;;11.23;;
5951;SDS011;3001;42.622;23.194;2023-06-14T07:06:48;13.27;;;12.07;;
5951;SDS011;3001;42.622;23.194;2023-06-14T07:09:17;11.77;;;10.87;;
5951;SDS011;3001;42.622;23.194;2023-06-14T07:11:45;12.07;;;11.00;;
5951;SDS011;3001;42.622;23.194;2023-06-14T07:14:13;13.63;;;12.33;;
5951;SDS011;3001;42.622;23.194;2023-06-14T07:16:40;12.63;;;11.47;;
5951;SDS011;3001;42.622;23.194;2023-06-14T07:19:08;14.10;;;12.10;;
5951;SDS011;3001;42.622;23.194;2023-06-14T07:21:35;11.27;;;10.27;;
5951;SDS011;3001;42.622;23.194;2023-06-14T07:24:03;13.53;;;12.27;;
5951;SDS011;3001;42.622;23.194;2023-06-14T07:26:32;12.97;;;11.77;;
5951;SDS011;3001;42.622;23.194;2023-06-14T07:28:59;15.43;;;14.00;;
5951;SDS011;3001;42.622;23.194;2023-06-14T07:31:26;14.37;;;13.07;;
5951;SDS011;3001;42.622;23.194;2023-06-14T07:33:52;13.13;;;11.87;;
5951;SDS011;3001;42.622;23.194;2023-06-14T07:36:19;12.27;;;11.17;;
5951;SDS011;3001;42.622;23.194;2023-06-14T07:38:46;11.43;;;10.53;;
5951;SDS011;3001;42.622;23.194;2023-06-14T07:41:13;11.57;;;10.57;;
5951;SDS011;3001;42.622;23.194;2023-06-14T07:43:41;12.27;;;11.27;;
5951;SDS011;3001;42.622;23.194;2023-06-14T07:46:07;11.73;;;10.83;;
5951;SDS011;3001;42.622;23.194;2023-06-14T07:48:34;12.27;;;11.07;;
5951;SDS011;3001;42.622;23.194;2023-06-14T07:51:01;11.10;;;10.23;;
5951;SDS011;3001;42.622;23.194;2023-06-14T07:53:27;11.27;;;10.37;;
5951;SDS011;3001;42.622;23.194;2023-06-14T07:55:55;11.80;;;10.80;;
5951;SDS011;3001;42.622;23.194;2023-06-14T07:58:22;10.70;;;9.87;;
5951;SDS011;3001;42.622;23.194;2023-06-14T08:00:50;10.37;;;9.47;;
5951;SDS011;3001;42.622;23.194;2023-06-14T08:03:17;11.13;;;10.20;;
5951;SDS011;3001;42.622;23.194;2023-06-14T08:05:44;10.93;;;10.03;;
5951;SDS011;3001;42.622;23.194;2023-06-14T08:08:11;11.30;;;10.50;;
5951;SDS011;3001;42.622;23.194;2023-06-14T08:10:37;10.53;;;9.83;;
5951;SDS011;3001;42.622;23.194;2023-06-14T08:13:04;11.00;;;10.10;;
5951;SDS011;3001;42.622;23.194;2023-06-14T08:15:31;11.93;;;10.87;;
5951;SDS011;3001;42.622;23.194;2023-06-14T08:18:00;11.83;;;10.83;;
5951;SDS011;3001;42.622;23.194;2023-06-14T08:20:27;13.63;;;12.20;;
5951;SDS011;3001;42.622;23.194;2023-06-14T08:22:55;10.67;;;9.90;;
5951;SDS011;3001;42.622;23.194;2023-06-14T08:25:22;11.23;;;10.40;;
5951;SDS011;3001;42.622;23.194;2023-06-14T08:27:49;11.27;;;10.47;;
5951;SDS011;3001;42.622;23.194;2023-06-14T08:30:15;10.53;;;9.70;;
5951;SDS011;3001;42.622;23.194;2023-06-14T08:32:42;14.97;;;9.73;;
5951;SDS011;3001;42.622;23.194;2023-06-14T08:35:11;10.83;;;9.93;;
5951;SDS011;3001;42.622;23.194;2023-06-14T08:37:38;10.47;;;9.77;;
5951;SDS011;3001;42.622;23.194;2023-06-14T08:40:07;11.30;;;10.23;;
5951;SDS011;3001;42.622;23.194;2023-06-14T08:42:44;11.10;;;10.10;;
5951;SDS011;3001;42.622;23.194;2023-06-14T08:45:12;10.20;;;9.30;;
5951;SDS011;3001;42.622;23.194;2023-06-14T08:47:38;10.03;;;9.33;;
5951;SDS011;3001;42.622;23.194;2023-06-14T08:50:06;10.60;;;9.70;;
5951;SDS011;3001;42.622;23.194;2023-06-14T08:52:38;10.77;;;10.07;;
5951;SDS011;3001;42.622;23.194;2023-06-14T08:55:10;10.80;;;9.93;;
5951;SDS011;3001;42.622;23.194;2023-06-14T08:57:38;11.93;;;11.03;;
5951;SDS011;3001;42.622;23.194;2023-06-14T09:00:07;12.17;;;11.00;;
5951;SDS011;3001;42.622;23.194;2023-06-14T09:02:37;13.27;;;12.03;;
5951;SDS011;3001;42.622;23.194;2023-06-14T09:05:08;12.37;;;10.97;;
5951;SDS011;3001;42.622;23.194;2023-06-14T09:07:37;11.33;;;10.47;;
5951;SDS011;3001;42.622;23.194;2023-06-14T09:10:06;11.50;;;10.40;;
5951;SDS011;3001;42.622;23.194;2023-06-14T09:12:34;11.57;;;10.67;;
5951;SDS011;3001;42.622;23.194;2023-06-14T09:15:01;11.90;;;10.70;;
5951;SDS011;3001;42.622;23.194;2023-06-14T09:17:32;12.60;;;10.87;;
5951;SDS011;3001;42.622;23.194;2023-06-14T09:19:59;11.67;;;10.53;;
5951;SDS011;3001;42.622;23.194;2023-06-14T09:22:25;11.03;;;9.77;;
5951;SDS011;3001;42.622;23.194;2023-06-14T09:24:56;12.63;;;9.87;;
5951;SDS011;3001;42.622;23.194;2023-06-14T09:27:24;10.93;;;10.23;;
5951;SDS011;3001;42.622;23.194;2023-06-14T09:29:51;10.97;;;10.00;;
5951;SDS011;3001;42.622;23.194;2023-06-14T09:32:18;10.70;;;9.83;;
5951;SDS011;3001;42.622;23.194;2023-06-14T09:34:46;10.97;;;10.17;;
5951;SDS011;3001;42.622;23.194;2023-06-14T09:37:13;10.47;;;9.57;;
5951;SDS011;3001;42.622;23.194;2023-06-14T09:39:53;10.43;;;9.73;;
5951;SDS011;3001;42.622;23.194;2023-06-14T09:42:21;10.83;;;9.80;;
5951;SDS011;3001;42.622;23.194;2023-06-14T09:44:50;10.73;;;9.77;;
5951;SDS011;3001;42.622;23.194;2023-06-14T09:47:18;10.20;;;9.23;;
5951;SDS011;3001;42.622;23.194;2023-06-14T09:49:45;10.93;;;10.00;;
5951;SDS011;3001;42.622;23.194;2023-06-14T09:52:13;9.83;;;9.13;;
5951;SDS011;3001;42.622;23.194;2023-06-14T09:54:42;9.17;;;8.37;;
5951;SDS011;3001;42.622;23.194;2023-06-14T09:57:11;9.50;;;8.73;;
5951;SDS011;3001;42.622;23.194;2023-06-14T09:59:41;9.97;;;9.27;;
5951;SDS011;3001;42.622;23.194;2023-06-14T10:02:11;9.13;;;8.43;;
5951;SDS011;3001;42.622;23.194;2023-06-14T10:04:41;9.77;;;9.03;;
5951;SDS011;3001;42.622;23.194;2023-06-14T10:07:16;11.13;;;10.10;;
5951;SDS011;3001;42.622;23.194;2023-06-14T10:09:46;11.73;;;10.70;;
5951;SDS011;3001;42.622;23.194;2023-06-14T10:12:15;9.60;;;9.00;;
5951;SDS011;3001;42.622;23.194;2023-06-14T10:14:47;10.17;;;9.50;;
5951;SDS011;3001;42.622;23.194;2023-06-14T10:17:18;10.73;;;9.93;;
5951;SDS011;3001;42.622;23.194;2023-06-14T10:19:50;9.30;;;8.70;;
5951;SDS011;3001;42.622;23.194;2023-06-14T10:22:23;9.93;;;9.33;;
5951;SDS011;3001;42.622;23.194;2023-06-14T10:24:55;9.43;;;8.83;;
5951;SDS011;3001;42.622;23.194;2023-06-14T10:27:22;12.57;;;8.97;;
5951;SDS011;3001;42.622;23.194;2023-06-14T10:30:04;10.37;;;9.70;;
5951;SDS011;3001;42.622;23.194;2023-06-14T10:32:33;9.27;;;8.77;;
5951;SDS011;3001;42.622;23.194;2023-06-14T10:35:00;10.20;;;9.70;;
5951;SDS011;3001;42.622;23.194;2023-06-14T10:37:30;10.40;;;9.70;;
5951;SDS011;3001;42.622;23.194;2023-06-14T10:39:57;10.27;;;9.47;;
5951;SDS011;3001;42.622;23.194;2023-06-14T10:42:27;9.83;;;9.23;;
5951;SDS011;3001;42.622;23.194;2023-06-14T10:44:58;9.97;;;9.37;;
5951;SDS011;3001;42.622;23.194;2023-06-14T10:47:30;9.77;;;9.00;;
5951;SDS011;3001;42.622;23.194;2023-06-14T10:49:58;10.60;;;9.80;;
5951;SDS011;3001;42.622;23.194;2023-06-14T10:52:32;10.53;;;9.73;;
5951;SDS011;3001;42.622;23.194;2023-06-14T10:55:01;11.03;;;10.07;;
5951;SDS011;3001;42.622;23.194;2023-06-14T10:57:34;10.70;;;10.00;;
5951;SDS011;3001;42.622;23.194;2023-06-14T11:00:02;11.30;;;10.40;;
5951;SDS011;3001;42.622;23.194;2023-06-14T11:02:59;9.97;;;9.27;;
5951;SDS011;3001;42.622;23.194;2023-06-14T11:05:53;11.13;;;10.23;;
5951;SDS011;3001;42.622;23.194;2023-06-14T11:08:34;11.37;;;10.57;;
5951;SDS011;3001;42.622;23.194;2023-06-14T11:11:36;9.77;;;9.17;;
5951;SDS011;3001;42.622;23.194;2023-06-14T11:14:07;10.53;;;9.93;;
5951;SDS011;3001;42.622;23.194;2023-06-14T11:16:34;10.97;;;10.27;;
5951;SDS011;3001;42.622;23.194;2023-06-14T11:19:02;10.33;;;9.73;;
5951;SDS011;3001;42.622;23.194;2023-06-14T11:21:29;11.20;;;10.48;;
5951;SDS011;3001;42.622;23.194;2023-06-14T11:23:58;10.53;;;9.73;;
5951;SDS011;3001;42.622;23.194;2023-06-14T11:26:25;10.52;;;9.85;;
5951;SDS011;3001;42.622;23.194;2023-06-14T11:28:54;10.15;;;9.52;;
5951;SDS011;3001;42.622;23.194;2023-06-14T11:31:22;10.65;;;9.85;;
5951;SDS011;3001;42.622;23.194;2023-06-14T11:33:49;9.45;;;8.73;;
5951;SDS011;3001;42.622;23.194;2023-06-14T11:36:18;9.35;;;8.82;;
5951;SDS011;3001;42.622;23.194;2023-06-14T11:38:44;8.65;;;8.15;;
5951;SDS011;3001;42.622;23.194;2023-06-14T11:41:11;9.40;;;8.73;;
5951;SDS011;3001;42.622;23.194;2023-06-14T11:43:39;9.33;;;8.63;;
5951;SDS011;3001;42.622;23.194;2023-06-14T11:46:11;9.73;;;8.75;;
5951;SDS011;3001;42.622;23.194;2023-06-14T11:48:40;8.82;;;8.32;;
5951;SDS011;3001;42.622;23.194;2023-06-14T11:51:08;8.82;;;8.23;;
5951;SDS011;3001;42.622;23.194;2023-06-14T11:53:37;8.77;;;8.07;;
5951;SDS011;3001;42.622;23.194;2023-06-14T11:56:04;8.85;;;8.32;;
5951;SDS011;3001;42.622;23.194;2023-06-14T11:58:31;9.25;;;8.65;;
5951;SDS011;3001;42.622;23.194;2023-06-14T12:00:58;8.65;;;8.15;;
5951;SDS011;3001;42.622;23.194;2023-06-14T12:03:25;9.32;;;8.65;;
5951;SDS011;3001;42.622;23.194;2023-06-14T12:06:03;8.45;;;8.05;;
5951;SDS011;3001;42.622;23.194;2023-06-14T12:08:32;8.20;;;7.60;;
5951;SDS011;3001;42.622;23.194;2023-06-14T12:11:05;8.20;;;7.70;;
5951;SDS011;3001;42.622;23.194;2023-06-14T12:13:33;7.97;;;7.38;;
5951;SDS011;3001;42.622;23.194;2023-06-14T12:16:01;7.80;;;7.35;;
5951;SDS011;3001;42.622;23.194;2023-06-14T12:18:34;7.90;;;7.40;;
5951;SDS011;3001;42.622;23.194;2023-06-14T12:21:02;7.60;;;7.20;;
5951;SDS011;3001;42.622;23.194;2023-06-14T12:23:44;8.32;;;7.82;;
5951;SDS011;3001;42.622;23.194;2023-06-14T12:26:14;8.15;;;7.75;;
5951;SDS011;3001;42.622;23.194;2023-06-14T12:28:41;7.03;;;6.72;;
5951;SDS011;3001;42.622;23.194;2023-06-14T12:31:09;8.13;;;7.72;;
5951;SDS011;3001;42.622;23.194;2023-06-14T12:33:37;8.50;;;8.07;;
5951;SDS011;3001;42.622;23.194;2023-06-14T12:36:04;7.32;;;6.97;;
5951;SDS011;3001;42.622;23.194;2023-06-14T12:38:32;8.20;;;7.80;;
5951;SDS011;3001;42.622;23.194;2023-06-14T12:40:59;8.23;;;7.50;;
5951;SDS011;3001;42.622;23.194;2023-06-14T12:43:28;7.88;;;7.47;;
5951;SDS011;3001;42.622;23.194;2023-06-14T12:45:54;7.70;;;7.38;;
5951;SDS011;3001;42.622;23.194;2023-06-14T12:48:21;8.07;;;7.57;;
5951;SDS011;3001;42.622;23.194;2023-06-14T12:50:48;7.50;;;7.10;;
5951;SDS011;3001;42.622;23.194;2023-06-14T12:53:14;8.15;;;7.65;;
5951;SDS011;3001;42.622;23.194;2023-06-14T12:55:42;7.68;;;7.18;;
5951;SDS011;3001;42.622;23.194;2023-06-14T12:58:08;7.90;;;7.35;;
5951;SDS011;3001;42.622;23.194;2023-06-14T13:00:38;8.47;;;7.87;;
5951;SDS011;3001;42.622;23.194;2023-06-14T13:03:05;8.50;;;7.90;;
5951;SDS011;3001;42.622;23.194;2023-06-14T13:05:32;8.57;;;7.93;;
5951;SDS011;3001;42.622;23.194;2023-06-14T13:07:58;9.07;;;8.20;;
5951;SDS011;3001;42.622;23.194;2023-06-14T13:10:25;7.57;;;7.17;;
5951;SDS011;3001;42.622;23.194;2023-06-14T13:12:52;7.43;;;7.00;;
5951;SDS011;3001;42.622;23.194;2023-06-14T13:15:19;7.40;;;7.00;;
5951;SDS011;3001;42.622;23.194;2023-06-14T13:17:47;7.23;;;6.80;;
5951;SDS011;3001;42.622;23.194;2023-06-14T13:20:14;7.57;;;7.17;;
5951;SDS011;3001;42.622;23.194;2023-06-14T13:22:41;8.03;;;7.63;;
5951;SDS011;3001;42.622;23.194;2023-06-14T13:25:08;7.40;;;7.00;;
5951;SDS011;3001;42.622;23.194;2023-06-14T13:27:35;8.23;;;7.40;;
5951;SDS011;3001;42.622;23.194;2023-06-14T13:30:02;8.83;;;8.03;;
5951;SDS011;3001;42.622;23.194;2023-06-14T13:32:30;9.27;;;8.33;;
5951;SDS011;3001;42.622;23.194;2023-06-14T13:34:58;9.37;;;8.43;;
5951;SDS011;3001;42.622;23.194;2023-06-14T13:37:25;10.50;;;9.47;;
5951;SDS011;3001;42.622;23.194;2023-06-14T13:39:52;10.53;;;8.37;;
5951;SDS011;3001;42.622;23.194;2023-06-14T13:42:18;10.50;;;9.20;;
5951;SDS011;3001;42.622;23.194;2023-06-14T13:44:45;19.93;;;10.93;;
5951;SDS011;3001;42.622;23.194;2023-06-14T13:47:11;11.60;;;10.50;;
5951;SDS011;3001;42.622;23.194;2023-06-14T13:49:38;9.70;;;8.90;;
5951;SDS011;3001;42.622;23.194;2023-06-14T13:52:06;8.63;;;7.97;;
5951;SDS011;3001;42.622;23.194;2023-06-14T13:54:33;8.03;;;7.47;;
5951;SDS011;3001;42.622;23.194;2023-06-14T13:57:01;9.80;;;8.87;;
5951;SDS011;3001;42.622;23.194;2023-06-14T13:59:27;8.30;;;7.57;;
5951;SDS011;3001;42.622;23.194;2023-06-14T14:01:54;8.43;;;7.73;;
5951;SDS011;3001;42.622;23.194;2023-06-14T14:04:20;9.40;;;8.60;;
5951;SDS011;3001;42.622;23.194;2023-06-14T14:06:47;14.90;;;8.20;;
5951;SDS011;3001;42.622;23.194;2023-06-14T14:09:15;10.30;;;9.60;;
5951;SDS011;3001;42.622;23.194;2023-06-14T14:11:42;11.40;;;9.97;;
5951;SDS011;3001;42.622;23.194;2023-06-14T14:14:09;12.07;;;10.53;;
5951;SDS011;3001;42.622;23.194;2023-06-14T14:16:36;14.70;;;10.10;;
5951;SDS011;3001;42.622;23.194;2023-06-14T14:19:03;10.07;;;9.20;;
5951;SDS011;3001;42.622;23.194;2023-06-14T14:21:30;10.13;;;9.37;;
5951;SDS011;3001;42.622;23.194;2023-06-14T14:23:57;11.57;;;10.50;;
5951;SDS011;3001;42.622;23.194;2023-06-14T14:26:25;10.33;;;9.17;;
5951;SDS011;3001;42.622;23.194;2023-06-14T14:28:52;11.60;;;10.47;;
5951;SDS011;3001;42.622;23.194;2023-06-14T14:31:19;11.60;;;10.50;;
5951;SDS011;3001;42.622;23.194;2023-06-14T14:33:45;11.40;;;10.60;;
5951;SDS011;3001;42.622;23.194;2023-06-14T14:36:12;12.17;;;11.27;;
5951;SDS011;3001;42.622;23.194;2023-06-14T14:38:39;11.57;;;10.57;;
5951;SDS011;3001;42.622;23.194;2023-06-14T14:41:05;13.97;;;10.77;;
5951;SDS011;3001;42.622;23.194;2023-06-14T14:43:34;12.10;;;11.00;;
5951;SDS011;3001;42.622;23.194;2023-06-14T14:46:01;10.53;;;9.53;;
5951;SDS011;3001;42.622;23.194;2023-06-14T14:48:28;7.93;;;7.53;;
5951;SDS011;3001;42.622;23.194;2023-06-14T14:50:54;7.10;;;6.60;;
5951;SDS011;3001;42.622;23.194;2023-06-14T14:53:21;5.80;;;5.50;;
5951;SDS011;3001;42.622;23.194;2023-06-14T14:55:48;5.77;;;5.47;;